createdAt,value
2023-05-10T00:00:19.102Z,100.00
2023-05-10T00:02:47.286Z,100.00
2023-05-10T00:05:15.313Z,100.00
2023-05-10T00:07:45.710Z,100.00
2023-05-10T00:10:13.991Z,100.00
2023-05-10T00:12:43.825Z,100.00
2023-05-10T00:15:12.435Z,100.00
2023-05-10T00:17:40.523Z,100.00
2023-05-10T00:20:09.478Z,100.00
2023-05-10T00:22:37.481Z,100.00
2023-05-10T00:25:07.176Z,100.00
2023-05-10T00:27:35.208Z,100.00
2023-05-10T00:30:05.109Z,100.00
2023-05-10T00:32:33.122Z,100.00
2023-05-10T00:35:01.087Z,100.00
2023-05-10T00:37:29.092Z,100.00
2023-05-10T00:39:57.162Z,100.00
2023-05-10T00:42:25.145Z,100.00
2023-05-10T00:44:53.182Z,100.00
2023-05-10T00:47:22.890Z,100.00
2023-05-10T00:49:51.004Z,100.00
2023-05-10T00:52:18.976Z,100.00
2023-05-10T00:54:47.152Z,100.00
2023-05-10T00:57:15.238Z,100.00
2023-05-10T00:59:43.323Z,100.00
2023-05-10T01:02:11.588Z,100.00
2023-05-10T01:04:41.634Z,100.00
2023-05-10T01:07:09.626Z,100.00
2023-05-10T01:09:37.675Z,100.00
2023-05-10T01:12:07.890Z,100.00
2023-05-10T01:14:38.167Z,100.00
2023-05-10T01:17:07.653Z,100.00
2023-05-10T01:19:38.659Z,100.00
2023-05-10T01:22:27.278Z,100.00
2023-05-10T01:25:32.684Z,100.00
2023-05-10T01:28:24.072Z,100.00
2023-05-10T01:31:15.909Z,100.00
2023-05-10T01:33:52.324Z,100.00
2023-05-10T01:36:28.844Z,100.00
2023-05-10T01:39:03.415Z,100.00
2023-05-10T01:41:48.341Z,100.00
2023-05-10T01:44:22.657Z,100.00
2023-05-10T01:46:55.283Z,100.00
2023-05-10T01:49:28.486Z,100.00
2023-05-10T01:52:01.431Z,100.00
2023-05-10T01:54:30.845Z,100.00
2023-05-10T01:57:05.178Z,100.00
2023-05-10T01:59:40.188Z,100.00
2023-05-10T02:02:12.456Z,100.00
2023-05-10T02:04:44.068Z,100.00
2023-05-10T02:07:13.616Z,100.00
2023-05-10T02:09:44.632Z,100.00
2023-05-10T02:12:15.280Z,100.00
2023-05-10T02:14:44.354Z,100.00
2023-05-10T02:17:13.929Z,100.00
2023-05-10T02:19:44.254Z,100.00
2023-05-10T02:22:13.109Z,100.00
2023-05-10T02:24:42.228Z,100.00
2023-05-10T02:27:12.138Z,100.00
2023-05-10T02:29:40.813Z,100.00
2023-05-10T02:32:10.629Z,100.00
2023-05-10T02:34:40.197Z,100.00
2023-05-10T02:37:10.470Z,100.00
2023-05-10T02:39:39.447Z,100.00
2023-05-10T02:42:08.327Z,100.00
2023-05-10T02:44:38.171Z,100.00
2023-05-10T02:47:06.374Z,100.00
2023-05-10T02:49:34.788Z,100.00
2023-05-10T02:52:06.685Z,100.00
2023-05-10T02:54:43.428Z,100.00
2023-05-10T02:57:19.111Z,100.00
2023-05-10T02:59:47.393Z,100.00
2023-05-10T03:02:15.352Z,100.00
2023-05-10T03:04:43.314Z,100.00
2023-05-10T03:07:11.700Z,100.00
2023-05-10T03:09:41.660Z,100.00
2023-05-10T03:12:16.046Z,100.00
2023-05-10T03:14:54.959Z,100.00
2023-05-10T03:17:28.430Z,100.00
2023-05-10T03:19:58.319Z,100.00
2023-05-10T03:22:28.476Z,100.00
2023-05-10T03:24:59.706Z,100.00
2023-05-10T03:27:29.751Z,100.00
2023-05-10T03:29:58.459Z,100.00
2023-05-10T03:32:28.126Z,100.00
2023-05-10T03:34:56.187Z,100.00
2023-05-10T03:37:24.144Z,100.00
2023-05-10T03:39:52.176Z,100.00
2023-05-10T03:42:21.926Z,100.00
2023-05-10T03:44:50.464Z,100.00
2023-05-10T03:47:18.428Z,100.00
2023-05-10T03:49:46.384Z,100.00
2023-05-10T03:52:14.358Z,100.00
2023-05-10T03:54:42.309Z,100.00
2023-05-10T03:57:10.603Z,100.00
2023-05-10T03:59:39.925Z,100.00
2023-05-10T04:02:08.339Z,100.00
2023-05-10T04:04:36.371Z,100.00
2023-05-10T04:07:05.023Z,100.00
2023-05-10T04:09:33.602Z,100.00
2023-05-10T04:12:03.292Z,100.00
2023-05-10T04:14:31.317Z,100.00
2023-05-10T04:17:00.758Z,100.00
2023-05-10T04:19:31.549Z,100.00
2023-05-10T04:21:59.770Z,100.00
2023-05-10T04:24:27.820Z,100.00
2023-05-10T04:26:57.792Z,100.00
2023-05-10T04:29:26.043Z,100.00
2023-05-10T04:31:54.407Z,100.00
2023-05-10T04:34:24.063Z,100.00
2023-05-10T04:36:52.022Z,100.00
2023-05-10T04:39:20.039Z,100.00
2023-05-10T04:41:48.061Z,100.00
2023-05-10T04:44:16.142Z,100.00
2023-05-10T04:46:44.184Z,100.00
2023-05-10T04:49:12.738Z,100.00
2023-05-10T04:51:42.046Z,100.00
2023-05-10T04:54:10.010Z,100.00
2023-05-10T04:56:38.066Z,100.00
2023-05-10T04:59:06.069Z,100.00
2023-05-10T05:01:34.192Z,100.00
2023-05-10T05:04:02.421Z,100.00
2023-05-10T05:06:30.557Z,100.00
2023-05-10T05:08:59.873Z,100.00
2023-05-10T05:11:27.829Z,100.00
2023-05-10T05:13:56.344Z,100.00
2023-05-10T05:16:24.515Z,100.00
2023-05-10T05:18:52.516Z,100.00
2023-05-10T05:21:22.405Z,100.00
2023-05-10T05:23:50.529Z,100.00
2023-05-10T05:26:19.880Z,100.00
2023-05-10T05:28:49.734Z,100.00
2023-05-10T05:31:17.777Z,100.00
2023-05-10T05:33:45.885Z,100.00
2023-05-10T05:36:13.921Z,100.00
2023-05-10T05:38:41.987Z,100.00
2023-05-10T05:41:09.996Z,100.00
2023-05-10T05:43:39.334Z,100.00
2023-05-10T05:46:08.677Z,100.00
2023-05-10T05:48:37.062Z,100.00
2023-05-10T05:51:07.151Z,100.00
2023-05-10T05:53:35.883Z,100.00
2023-05-10T05:56:04.653Z,100.00
2023-05-10T05:58:32.728Z,100.00
2023-05-10T06:01:02.266Z,100.00
2023-05-10T06:03:30.350Z,100.00
2023-05-10T06:05:58.408Z,100.00
2023-05-10T06:08:26.779Z,100.00
2023-05-10T06:10:54.799Z,100.00
2023-05-10T06:13:22.845Z,100.00
2023-05-10T06:15:50.909Z,100.00
2023-05-10T06:18:20.254Z,100.00
2023-05-10T06:20:48.389Z,100.00
2023-05-10T06:23:16.552Z,100.00
2023-05-10T06:25:44.543Z,100.00
2023-05-10T06:28:12.547Z,100.00
2023-05-10T06:30:40.556Z,100.00
2023-05-10T06:33:08.638Z,100.00
2023-05-10T06:35:38.132Z,100.00
2023-05-10T06:38:06.186Z,100.00
2023-05-10T06:40:34.389Z,100.00
2023-05-10T06:43:02.448Z,100.00
2023-05-10T06:45:30.536Z,100.00
2023-05-10T06:47:58.562Z,100.00
2023-05-10T06:50:26.733Z,100.00
2023-05-10T06:52:56.438Z,100.00
2023-05-10T06:55:24.663Z,100.00
2023-05-10T06:57:52.664Z,100.00
2023-05-10T07:00:21.791Z,100.00
2023-05-10T07:02:49.929Z,100.00
2023-05-10T07:05:18.338Z,100.00
2023-05-10T07:07:46.573Z,100.00
2023-05-10T07:10:16.078Z,100.00
2023-05-10T07:12:44.313Z,100.00
2023-05-10T07:15:13.292Z,100.00
2023-05-10T07:17:43.233Z,100.00
2023-05-10T07:20:13.947Z,100.00
2023-05-10T07:22:42.015Z,100.00
2023-05-10T07:25:10.456Z,100.00
2023-05-10T07:27:39.867Z,100.00
2023-05-10T07:30:09.266Z,100.00
2023-05-10T07:32:37.426Z,100.00
2023-05-10T07:35:06.534Z,100.00
2023-05-10T07:37:34.546Z,100.00
2023-05-10T07:40:02.989Z,100.00
2023-05-10T07:42:31.023Z,100.00
2023-05-10T07:45:00.407Z,100.00
2023-05-10T07:47:28.566Z,100.00
2023-05-10T07:49:56.562Z,100.00
2023-05-10T07:52:24.527Z,100.00
2023-05-10T07:54:52.537Z,100.00
2023-05-10T07:57:20.705Z,100.00
2023-05-10T07:59:48.693Z,100.00
2023-05-10T08:02:18.031Z,100.00
2023-05-10T08:04:46.557Z,100.00
2023-05-10T08:07:14.710Z,100.00
2023-05-10T08:09:42.669Z,100.00
2023-05-10T08:12:10.836Z,100.00
2023-05-10T08:14:38.876Z,100.00
2023-05-10T08:17:06.997Z,100.00
2023-05-10T08:19:36.343Z,100.00
2023-05-10T08:22:04.284Z,100.00
2023-05-10T08:24:32.321Z,100.00
2023-05-10T08:27:00.325Z,100.00
2023-05-10T08:29:30.400Z,100.00
2023-05-10T08:31:58.624Z,100.00
2023-05-10T08:34:26.826Z,100.00
2023-05-10T08:36:56.330Z,98.27
2023-05-10T08:39:30.245Z,100.00
2023-05-10T08:42:03.498Z,97.80
2023-05-10T08:44:32.976Z,100.00
2023-05-10T08:47:04.543Z,100.00
2023-05-10T08:49:33.833Z,100.00
2023-05-10T08:52:06.349Z,100.00
2023-05-10T08:54:35.335Z,100.00
2023-05-10T08:57:04.073Z,100.00
2023-05-10T08:59:32.324Z,100.00
2023-05-10T09:02:01.024Z,100.00
2023-05-10T09:04:30.117Z,97.33
2023-05-10T09:06:58.777Z,98.55
2023-05-10T09:09:29.787Z,96.05
2023-05-10T09:11:57.804Z,100.00
2023-05-10T09:14:26.996Z,100.00
2023-05-10T09:16:56.215Z,95.44
2023-05-10T09:19:24.310Z,94.69
2023-05-10T09:21:52.309Z,91.99
2023-05-10T09:24:20.442Z,92.96
2023-05-10T09:26:50.502Z,92.00
2023-05-10T09:29:18.557Z,96.01
2023-05-10T09:31:49.187Z,98.28
2023-05-10T09:34:22.000Z,94.94
2023-05-10T09:36:54.793Z,91.32
2023-05-10T09:39:23.066Z,91.48
2023-05-10T09:41:53.815Z,95.33
2023-05-10T09:44:21.840Z,94.77
2023-05-10T09:46:53.719Z,94.77
2023-05-10T09:49:22.838Z,94.79
2023-05-10T09:52:02.444Z,94.94
2023-05-10T09:54:30.686Z,92.23
2023-05-10T09:57:00.108Z,96.20
2023-05-10T09:59:29.069Z,100.00
2023-05-10T10:01:59.447Z,100.00
2023-05-10T10:04:27.710Z,100.00
2023-05-10T10:07:06.842Z,100.00
2023-05-10T10:09:36.075Z,100.00
2023-05-10T10:12:05.936Z,100.00
2023-05-10T10:14:34.172Z,100.00
2023-05-10T10:19:36.304Z,100.00
2023-05-10T10:22:05.177Z,100.00
2023-05-10T10:24:33.519Z,100.00
2023-05-10T10:27:11.254Z,100.00
2023-05-10T10:29:45.736Z,100.00
2023-05-10T10:32:24.406Z,100.00
2023-05-10T10:34:53.003Z,100.00
2023-05-10T10:37:21.376Z,100.00
2023-05-10T10:39:50.605Z,100.00
2023-05-10T10:42:50.872Z,100.00
2023-05-10T10:45:19.226Z,100.00
2023-05-10T10:47:47.452Z,100.00
2023-05-10T10:50:17.123Z,100.00
2023-05-10T10:52:46.376Z,100.00
2023-05-10T10:55:16.080Z,100.00
2023-05-10T10:57:52.011Z,100.00
2023-05-10T11:00:33.981Z,100.00
2023-05-10T11:03:07.357Z,100.00
2023-05-10T11:05:38.904Z,100.00
2023-05-10T11:08:18.675Z,100.00
2023-05-10T11:11:10.817Z,100.00
2023-05-10T11:13:44.594Z,100.00
2023-05-10T11:16:20.933Z,100.00
2023-05-10T11:18:58.686Z,100.00
2023-05-10T11:21:27.047Z,100.00
2023-05-10T11:23:58.227Z,100.00
2023-05-10T11:26:27.320Z,100.00
2023-05-10T11:29:00.169Z,100.00
2023-05-10T11:31:28.720Z,100.00
2023-05-10T11:33:58.272Z,100.00
2023-05-10T11:36:28.288Z,100.00
2023-05-10T11:38:57.323Z,100.00
2023-05-10T11:41:26.533Z,100.00
2023-05-10T11:43:57.269Z,100.00
2023-05-10T11:46:27.747Z,100.00
2023-05-10T11:48:59.347Z,100.00
2023-05-10T11:51:27.548Z,100.00
2023-05-10T11:53:56.994Z,100.00
2023-05-10T11:56:27.050Z,100.00
2023-05-10T11:58:58.134Z,100.00
2023-05-10T12:01:26.984Z,100.00
2023-05-10T12:03:59.696Z,100.00
2023-05-10T12:06:30.058Z,100.00
2023-05-10T12:08:58.036Z,100.00
2023-05-10T12:11:28.276Z,100.00
2023-05-10T12:13:58.221Z,100.00
2023-05-10T12:16:30.436Z,100.00
2023-05-10T12:18:59.714Z,100.00
2023-05-10T12:21:30.244Z,100.00
2023-05-10T12:24:02.306Z,100.00
2023-05-10T12:26:31.044Z,100.00
2023-05-10T12:31:54.629Z,100.00
2023-05-10T12:34:27.337Z,100.00
2023-05-10T12:36:56.372Z,100.00
2023-05-10T12:39:24.463Z,100.00
2023-05-10T12:41:52.924Z,100.00
2023-05-10T12:44:21.020Z,100.00
2023-05-10T12:46:49.196Z,100.00
2023-05-10T12:49:19.969Z,100.00
2023-05-10T12:51:47.980Z,100.00
2023-05-10T12:54:16.063Z,100.00
2023-05-10T12:56:44.018Z,100.00
2023-05-10T12:59:11.998Z,100.00
2023-05-10T13:01:40.159Z,100.00
2023-05-10T13:04:08.241Z,100.00
2023-05-10T13:06:37.640Z,100.00
2023-05-10T13:09:05.671Z,100.00
2023-05-10T13:11:33.864Z,100.00
2023-05-10T13:14:01.935Z,100.00
2023-05-10T13:16:29.943Z,100.00
2023-05-10T13:18:58.046Z,100.00
2023-05-10T13:21:26.782Z,100.00
2023-05-10T13:23:56.566Z,100.00
2023-05-10T13:26:24.621Z,100.00
2023-05-10T13:28:52.896Z,100.00
2023-05-10T13:31:21.598Z,100.00
2023-05-10T13:33:49.676Z,100.00
2023-05-10T13:36:17.679Z,100.00
2023-05-10T13:38:45.693Z,100.00
2023-05-10T13:41:15.086Z,100.00
2023-05-10T13:43:43.248Z,100.00
2023-05-10T13:46:11.503Z,100.00
2023-05-10T13:48:39.504Z,100.00
2023-05-10T13:51:07.629Z,100.00
2023-05-10T13:53:35.724Z,100.00
2023-05-10T13:56:04.257Z,100.00
2023-05-10T13:58:33.780Z,100.00
2023-05-10T14:01:01.795Z,100.00
2023-05-10T14:03:30.006Z,100.00
2023-05-10T14:05:58.238Z,100.00
2023-05-10T14:08:27.959Z,100.00
2023-05-10T14:10:57.344Z,100.00
2023-05-10T14:13:25.841Z,100.00
2023-05-10T14:15:56.631Z,100.00
2023-05-10T14:18:24.784Z,100.00
2023-05-10T14:20:52.847Z,100.00
2023-05-10T14:23:25.017Z,100.00
2023-05-10T14:25:53.022Z,100.00
2023-05-10T14:28:21.742Z,100.00
2023-05-10T14:30:49.825Z,100.00
2023-05-10T14:33:20.166Z,100.00
2023-05-10T14:35:48.608Z,100.00
2023-05-10T14:38:16.750Z,100.00
2023-05-10T14:40:45.029Z,100.00
2023-05-10T14:43:13.025Z,100.00
2023-05-10T14:45:41.044Z,100.00
2023-05-10T14:48:12.242Z,100.00
2023-05-10T14:50:41.670Z,100.00
2023-05-10T14:53:09.667Z,100.00
2023-05-10T14:55:37.937Z,100.00
2023-05-10T14:58:05.943Z,100.00
2023-05-10T15:00:34.104Z,100.00
2023-05-10T15:03:02.568Z,100.00
2023-05-10T15:05:30.972Z,100.00
2023-05-10T15:08:00.862Z,100.00
2023-05-10T15:10:28.846Z,100.00
2023-05-10T15:12:56.887Z,100.00
2023-05-10T15:15:25.082Z,100.00
2023-05-10T15:17:53.122Z,100.00
2023-05-10T15:20:21.168Z,100.00
2023-05-10T15:22:49.181Z,100.00
2023-05-10T15:25:18.821Z,100.00
2023-05-10T15:27:46.924Z,100.00
2023-05-10T15:30:15.415Z,100.00
2023-05-10T15:32:43.912Z,100.00
2023-05-10T15:35:12.457Z,100.00
2023-05-10T15:37:40.532Z,100.00
2023-05-10T15:40:09.290Z,100.00
2023-05-10T15:42:38.577Z,100.00
2023-05-10T15:45:07.453Z,100.00
2023-05-10T15:47:35.547Z,100.00
2023-05-10T15:50:03.702Z,100.00
2023-05-10T15:52:31.777Z,100.00
2023-05-10T15:54:59.744Z,100.00
2023-05-10T15:57:27.825Z,100.00
2023-05-10T15:59:57.930Z,100.00
2023-05-10T16:02:26.108Z,100.00
2023-05-10T16:04:54.163Z,100.00
2023-05-10T16:07:22.130Z,100.00
2023-05-10T16:09:50.715Z,100.00
2023-05-10T16:12:18.818Z,100.00
2023-05-10T16:14:47.522Z,100.00
2023-05-10T16:17:17.096Z,100.00
2023-05-10T16:19:45.128Z,100.00
2023-05-10T16:22:13.156Z,100.00
2023-05-10T16:24:41.289Z,100.00
2023-05-10T16:27:09.338Z,100.00
2023-05-10T16:29:37.361Z,100.00
2023-05-10T16:32:05.924Z,100.00
2023-05-10T16:34:35.233Z,100.00
2023-05-10T16:37:03.282Z,100.00
2023-05-10T16:39:31.278Z,100.00
2023-05-10T16:41:59.409Z,100.00
2023-05-10T16:44:27.430Z,100.00
2023-05-10T16:46:55.973Z,100.00
2023-05-10T16:49:26.140Z,100.00
2023-05-10T16:51:55.767Z,100.00
2023-05-10T16:54:23.804Z,100.00
2023-05-10T16:56:51.861Z,100.00
2023-05-10T16:59:19.826Z,100.00
2023-05-10T17:01:48.162Z,100.00
2023-05-10T17:04:16.475Z,100.00
2023-05-10T17:06:44.512Z,100.00
2023-05-10T17:09:13.933Z,100.00
2023-05-10T17:11:42.650Z,100.00
2023-05-10T17:14:10.948Z,100.00
2023-05-10T17:16:39.001Z,100.00
2023-05-10T17:19:07.177Z,100.00
2023-05-10T17:21:35.224Z,100.00
2023-05-10T17:24:03.277Z,100.00
2023-05-10T17:26:32.670Z,100.00
2023-05-10T17:29:00.706Z,100.00
2023-05-10T17:31:29.782Z,100.00
2023-05-10T17:33:57.810Z,100.00
2023-05-10T17:36:25.901Z,100.00
2023-05-10T17:38:53.848Z,100.00
2023-05-10T17:41:21.828Z,100.00
2023-05-10T17:43:51.324Z,100.00
2023-05-10T17:46:19.352Z,100.00
2023-05-10T17:48:47.422Z,100.00
2023-05-10T17:51:15.569Z,100.00
2023-05-10T17:53:44.569Z,100.00
2023-05-10T17:56:12.642Z,100.00
2023-05-10T17:58:40.655Z,100.00
2023-05-10T18:01:10.211Z,100.00
2023-05-10T18:03:38.299Z,100.00
2023-05-10T18:06:07.196Z,100.00
2023-05-10T18:08:35.495Z,100.00
2023-05-10T18:11:03.569Z,100.00
2023-05-10T18:13:32.027Z,100.00
2023-05-10T18:16:00.029Z,100.00
2023-05-10T18:18:29.475Z,100.00
2023-05-10T18:20:58.267Z,100.00
2023-05-10T18:23:26.422Z,100.00
2023-05-10T18:25:54.469Z,100.00
2023-05-10T18:28:22.467Z,100.00
2023-05-10T18:30:50.608Z,100.00
2023-05-10T18:33:18.679Z,100.00
2023-05-10T18:35:48.123Z,100.00
2023-05-10T18:38:16.312Z,100.00
2023-05-10T18:40:44.377Z,100.00
2023-05-10T18:43:12.416Z,100.00
2023-05-10T18:45:40.540Z,100.00
2023-05-10T18:48:08.850Z,100.00
2023-05-10T18:50:36.904Z,100.00
2023-05-10T18:53:06.280Z,100.00
2023-05-10T18:55:34.361Z,100.00
2023-05-10T18:58:02.387Z,100.00
2023-05-10T19:00:30.407Z,100.00
2023-05-10T19:02:58.524Z,100.00
2023-05-10T19:05:30.151Z,100.00
2023-05-10T19:07:58.478Z,100.00
2023-05-10T19:10:27.837Z,100.00
2023-05-10T19:12:55.876Z,100.00
2023-05-10T19:15:24.158Z,100.00
2023-05-10T19:17:52.677Z,100.00
2023-05-10T19:20:21.687Z,100.00
2023-05-10T19:23:08.647Z,100.00
2023-05-10T19:25:39.439Z,100.00
2023-05-10T19:28:09.635Z,100.00
2023-05-10T19:30:37.880Z,100.00
2023-05-10T19:33:05.950Z,100.00
2023-05-10T19:35:34.016Z,100.00
2023-05-10T19:38:02.189Z,100.00
2023-05-10T19:40:30.188Z,100.00
2023-05-10T19:43:00.383Z,100.00
2023-05-10T19:45:28.489Z,100.00
2023-05-10T19:47:56.669Z,100.00
2023-05-10T19:50:24.815Z,100.00
2023-05-10T19:52:52.808Z,100.00
2023-05-10T19:55:28.840Z,100.00
2023-05-10T19:57:57.080Z,100.00
2023-05-10T20:00:27.674Z,100.00
2023-05-10T20:02:56.202Z,100.00
2023-05-10T20:05:24.785Z,100.00
2023-05-10T20:07:52.794Z,100.00
2023-05-10T20:10:21.639Z,100.00
2023-05-10T20:12:52.352Z,100.00
2023-05-10T20:15:21.852Z,100.00
2023-05-10T20:17:52.706Z,100.00
2023-05-10T20:20:21.418Z,100.00
2023-05-10T20:22:50.009Z,100.00
2023-05-10T20:25:18.971Z,100.00
2023-05-10T20:27:46.993Z,100.00
2023-05-10T20:30:15.338Z,100.00
2023-05-10T20:32:43.750Z,100.00
2023-05-10T20:35:13.203Z,100.00
2023-05-10T20:37:41.209Z,100.00
2023-05-10T20:40:11.037Z,100.00
2023-05-10T20:42:39.121Z,100.00
2023-05-10T20:45:08.232Z,100.00
2023-05-10T20:47:36.807Z,100.00
2023-05-10T20:50:05.261Z,100.00
2023-05-10T20:52:34.651Z,100.00
2023-05-10T20:55:02.699Z,100.00
2023-05-10T20:57:30.695Z,100.00
2023-05-10T20:59:58.731Z,100.00
2023-05-10T21:02:26.864Z,100.00
2023-05-10T21:04:57.139Z,100.00
2023-05-10T21:07:26.175Z,100.00
2023-05-10T21:09:55.556Z,100.00
2023-05-10T21:12:23.571Z,100.00
2023-05-10T21:14:51.825Z,100.00
2023-05-10T21:17:20.314Z,100.00
2023-05-10T21:19:48.517Z,100.00
2023-05-10T21:22:16.562Z,100.00
2023-05-10T21:24:44.832Z,100.00
2023-05-10T21:27:14.272Z,100.00
2023-05-10T21:29:42.234Z,100.00
2023-05-10T21:32:10.597Z,100.00
2023-05-10T21:34:38.629Z,100.00
2023-05-10T21:37:06.814Z,100.00
2023-05-10T21:39:34.817Z,100.00
2023-05-10T21:42:03.520Z,100.00
2023-05-10T21:44:32.896Z,100.00
2023-05-10T21:47:00.918Z,100.00
2023-05-10T21:49:28.883Z,100.00
2023-05-10T21:51:56.880Z,100.00
2023-05-10T21:54:24.870Z,100.00
2023-05-10T21:56:52.862Z,100.00
2023-05-10T21:59:21.397Z,100.00
2023-05-10T22:01:50.843Z,100.00
2023-05-10T22:04:18.870Z,100.00
2023-05-10T22:06:46.930Z,100.00
2023-05-10T22:09:14.882Z,100.00
2023-05-10T22:11:42.932Z,100.00
2023-05-10T22:14:11.065Z,100.00
2023-05-10T22:16:39.099Z,100.00
2023-05-10T22:19:08.560Z,100.00
2023-05-10T22:21:36.631Z,100.00
2023-05-10T22:24:05.111Z,100.00
2023-05-10T22:26:33.109Z,100.00
2023-05-10T22:29:01.088Z,100.00
2023-05-10T22:31:29.118Z,100.00
2023-05-10T22:33:57.159Z,100.00
2023-05-10T22:36:26.491Z,100.00
2023-05-10T22:38:54.536Z,100.00
2023-05-10T22:41:22.607Z,100.00
2023-05-10T22:43:50.781Z,100.00
2023-05-10T22:46:18.839Z,100.00
2023-05-10T22:48:46.861Z,100.00
2023-05-10T22:51:14.844Z,100.00
2023-05-10T22:53:44.170Z,100.00
2023-05-10T22:56:12.278Z,100.00
2023-05-10T22:58:40.333Z,100.00
2023-05-10T23:01:08.360Z,100.00
2023-05-10T23:03:36.724Z,100.00
2023-05-10T23:06:05.345Z,100.00
2023-05-10T23:08:33.300Z,100.00
2023-05-10T23:11:02.649Z,100.00
2023-05-10T23:13:30.860Z,100.00
2023-05-10T23:15:58.858Z,100.00
2023-05-10T23:18:27.000Z,100.00
2023-05-10T23:20:54.959Z,100.00
2023-05-10T23:23:23.070Z,100.00
2023-05-10T23:25:51.388Z,100.00
2023-05-10T23:28:20.767Z,100.00
2023-05-10T23:30:48.753Z,100.00
2023-05-10T23:33:16.809Z,100.00
2023-05-10T23:35:44.810Z,100.00
2023-05-10T23:38:12.762Z,100.00
2023-05-10T23:40:40.712Z,100.00
2023-05-10T23:43:08.954Z,100.00
2023-05-10T23:45:38.274Z,100.00
2023-05-10T23:50:37.135Z,100.00
2023-05-10T23:53:05.128Z,100.00
2023-05-10T23:55:33.115Z,100.00
2023-05-10T23:58:01.179Z,100.00
